sensor_id;sensor_type;location;lat;lon;timestamp;temperature;humidity
7694;DHT22;3889;48.162;11.510;2022-09-27T00:00:44;10.90;99.90
7694;DHT22;3889;48.162;11.510;2022-09-27T00:03:12;10.80;99.90
7694;DHT22;3889;48.162;11.510;2022-09-27T00:05:40;10.90;99.90
7694;DHT22;3889;48.162;11.510;2022-09-27T00:08:09;10.90;99.90
7694;DHT22;3889;48.162;11.510;2022-09-27T00:10:37;10.90;99.90
7694;DHT22;3889;48.162;11.510;2022-09-27T00:13:05;10.90;99.90
7694;DHT22;3889;48.162;11.510;2022-09-27T00:15:33;10.90;99.90
7694;DHT22;3889;48.162;11.510;2022-09-27T00:18:01;10.80;99.90
7694;DHT22;3889;48.162;11.510;2022-09-27T00:20:29;10.90;99.90
7694;DHT22;3889;48.162;11.510;2022-09-27T00:22:57;10.80;99.90
7694;DHT22;3889;48.162;11.510;2022-09-27T00:25:26;10.90;99.90
7694;DHT22;3889;48.162;11.510;2022-09-27T00:27:54;10.80;99.90
7694;DHT22;3889;48.162;11.510;2022-09-27T00:30:22;10.70;99.90
7694;DHT22;3889;48.162;11.510;2022-09-27T00:32:49;10.70;99.90
7694;DHT22;3889;48.162;11.510;2022-09-27T00:35:18;10.70;99.90
7694;DHT22;3889;48.162;11.510;2022-09-27T00:37:47;10.80;99.90
7694;DHT22;3889;48.162;11.510;2022-09-27T00:40:15;10.80;99.90
7694;DHT22;3889;48.162;11.510;2022-09-27T00:42:47;10.70;99.90
7694;DHT22;3889;48.162;11.510;2022-09-27T00:45:16;10.70;99.90
7694;DHT22;3889;48.162;11.510;2022-09-27T00:47:51;10.70;99.90
7694;DHT22;3889;48.162;11.510;2022-09-27T00:50:25;10.70;99.90
7694;DHT22;3889;48.162;11.510;2022-09-27T00:53:02;10.70;99.90
7694;DHT22;3889;48.162;11.510;2022-09-27T00:55:34;10.70;99.90
7694;DHT22;3889;48.162;11.510;2022-09-27T00:58:04;10.70;99.90
7694;DHT22;3889;48.162;11.510;2022-09-27T01:00:32;10.60;99.90
7694;DHT22;3889;48.162;11.510;2022-09-27T01:03:03;10.60;99.90
7694;DHT22;3889;48.162;11.510;2022-09-27T01:05:33;10.60;99.90
7694;DHT22;3889;48.162;11.510;2022-09-27T01:08:00;10.60;99.90
7694;DHT22;3889;48.162;11.510;2022-09-27T01:10:34;10.60;99.90
7694;DHT22;3889;48.162;11.510;2022-09-27T01:13:11;10.60;99.90
7694;DHT22;3889;48.162;11.510;2022-09-27T01:15:46;10.60;99.90
7694;DHT22;3889;48.162;11.510;2022-09-27T01:18:28;10.60;99.90
7694;DHT22;3889;48.162;11.510;2022-09-27T01:30:19;10.70;99.90
7694;DHT22;3889;48.162;11.510;2022-09-27T01:32:51;10.70;99.90
7694;DHT22;3889;48.162;11.510;2022-09-27T01:35:27;10.70;99.90
7694;DHT22;3889;48.162;11.510;2022-09-27T01:38:07;10.70;99.90
7694;DHT22;3889;48.162;11.510;2022-09-27T01:40:41;10.70;99.90
7694;DHT22;3889;48.162;11.510;2022-09-27T01:43:14;10.70;99.90
7694;DHT22;3889;48.162;11.510;2022-09-27T01:45:49;10.70;99.90
7694;DHT22;3889;48.162;11.510;2022-09-27T01:48:20;10.70;99.90
7694;DHT22;3889;48.162;11.510;2022-09-27T01:50:51;10.70;99.90
7694;DHT22;3889;48.162;11.510;2022-09-27T01:53:22;10.60;99.90
7694;DHT22;3889;48.162;11.510;2022-09-27T01:55:53;10.60;99.90
7694;DHT22;3889;48.162;11.510;2022-09-27T01:58:25;10.60;99.90
7694;DHT22;3889;48.162;11.510;2022-09-27T02:00:58;10.60;99.90
7694;DHT22;3889;48.162;11.510;2022-09-27T02:03:31;10.60;99.90
7694;DHT22;3889;48.162;11.510;2022-09-27T02:06:02;10.60;99.90
7694;DHT22;3889;48.162;11.510;2022-09-27T02:08:35;10.60;99.90
7694;DHT22;3889;48.162;11.510;2022-09-27T02:11:09;10.60;99.90
7694;DHT22;3889;48.162;11.510;2022-09-27T02:13:43;10.60;99.90
7694;DHT22;3889;48.162;11.510;2022-09-27T02:16:21;10.60;99.90
7694;DHT22;3889;48.162;11.510;2022-09-27T02:18:57;10.60;99.90
7694;DHT22;3889;48.162;11.510;2022-09-27T02:21:35;10.60;99.90
7694;DHT22;3889;48.162;11.510;2022-09-27T02:24:06;10.60;99.90
7694;DHT22;3889;48.162;11.510;2022-09-27T02:26:40;10.50;99.90
7694;DHT22;3889;48.162;11.510;2022-09-27T02:29:12;10.50;99.90
7694;DHT22;3889;48.162;11.510;2022-09-27T02:31:43;10.50;99.90
7694;DHT22;3889;48.162;11.510;2022-09-27T02:34:14;10.50;99.90
7694;DHT22;3889;48.162;11.510;2022-09-27T02:36:43;10.50;99.90
7694;DHT22;3889;48.162;11.510;2022-09-27T02:39:11;10.50;99.90
7694;DHT22;3889;48.162;11.510;2022-09-27T02:41:38;10.50;99.90
7694;DHT22;3889;48.162;11.510;2022-09-27T02:44:10;10.60;99.90
7694;DHT22;3889;48.162;11.510;2022-09-27T02:47:03;10.50;99.90
7694;DHT22;3889;48.162;11.510;2022-09-27T02:49:47;10.50;99.90
7694;DHT22;3889;48.162;11.510;2022-09-27T02:52:24;10.50;99.90
7694;DHT22;3889;48.162;11.510;2022-09-27T02:55:01;10.50;99.90
7694;DHT22;3889;48.162;11.510;2022-09-27T02:57:40;10.50;99.90
7694;DHT22;3889;48.162;11.510;2022-09-27T03:00:15;10.50;99.90
7694;DHT22;3889;48.162;11.510;2022-09-27T03:02:52;10.50;99.90
7694;DHT22;3889;48.162;11.510;2022-09-27T03:05:25;10.50;99.90
7694;DHT22;3889;48.162;11.510;2022-09-27T03:07:54;10.50;99.90
7694;DHT22;3889;48.162;11.510;2022-09-27T03:10:25;10.40;99.90
7694;DHT22;3889;48.162;11.510;2022-09-27T03:12:53;10.40;99.90
7694;DHT22;3889;48.162;11.510;2022-09-27T03:15:22;10.40;99.90
7694;DHT22;3889;48.162;11.510;2022-09-27T03:17:51;10.50;99.90
7694;DHT22;3889;48.162;11.510;2022-09-27T03:20:19;10.50;99.90
7694;DHT22;3889;48.162;11.510;2022-09-27T03:22:47;10.50;99.90
7694;DHT22;3889;48.162;11.510;2022-09-27T03:25:15;10.50;99.90
7694;DHT22;3889;48.162;11.510;2022-09-27T03:27:43;10.40;99.90
7694;DHT22;3889;48.162;11.510;2022-09-27T03:30:12;10.40;99.90
7694;DHT22;3889;48.162;11.510;2022-09-27T03:32:41;10.40;99.90
7694;DHT22;3889;48.162;11.510;2022-09-27T03:35:12;10.50;99.90
7694;DHT22;3889;48.162;11.510;2022-09-27T03:37:40;10.40;99.90
7694;DHT22;3889;48.162;11.510;2022-09-27T03:40:11;10.40;99.90
7694;DHT22;3889;48.162;11.510;2022-09-27T03:42:39;10.40;99.90
7694;DHT22;3889;48.162;11.510;2022-09-27T03:45:11;10.40;99.90
7694;DHT22;3889;48.162;11.510;2022-09-27T03:47:40;10.50;99.90
7694;DHT22;3889;48.162;11.510;2022-09-27T03:50:09;10.40;99.90
7694;DHT22;3889;48.162;11.510;2022-09-27T03:52:40;10.50;99.90
7694;DHT22;3889;48.162;11.510;2022-09-27T03:55:09;10.50;99.90
7694;DHT22;3889;48.162;11.510;2022-09-27T03:57:38;10.40;99.90
7694;DHT22;3889;48.162;11.510;2022-09-27T04:00:07;10.30;99.90
7694;DHT22;3889;48.162;11.510;2022-09-27T04:02:35;10.30;99.90
7694;DHT22;3889;48.162;11.510;2022-09-27T04:05:04;10.30;99.90
7694;DHT22;3889;48.162;11.510;2022-09-27T04:07:32;10.20;99.90
7694;DHT22;3889;48.162;11.510;2022-09-27T04:10:01;10.20;99.90
7694;DHT22;3889;48.162;11.510;2022-09-27T04:12:29;10.20;99.90
7694;DHT22;3889;48.162;11.510;2022-09-27T04:14:58;10.20;99.90
7694;DHT22;3889;48.162;11.510;2022-09-27T04:17:27;10.30;99.90
7694;DHT22;3889;48.162;11.510;2022-09-27T04:19:55;10.30;99.90
7694;DHT22;3889;48.162;11.510;2022-09-27T04:22:23;10.30;99.90
7694;DHT22;3889;48.162;11.510;2022-09-27T04:24:51;10.30;99.90
7694;DHT22;3889;48.162;11.510;2022-09-27T04:27:20;10.30;99.90
7694;DHT22;3889;48.162;11.510;2022-09-27T04:29:48;10.20;99.90
7694;DHT22;3889;48.162;11.510;2022-09-27T04:32:16;10.20;99.90
7694;DHT22;3889;48.162;11.510;2022-09-27T04:34:44;10.20;99.90
7694;DHT22;3889;48.162;11.510;2022-09-27T04:37:26;10.10;99.90
7694;DHT22;3889;48.162;11.510;2022-09-27T04:39:55;10.20;99.90
7694;DHT22;3889;48.162;11.510;2022-09-27T04:42:25;10.20;99.90
7694;DHT22;3889;48.162;11.510;2022-09-27T04:44:54;10.20;99.90
7694;DHT22;3889;48.162;11.510;2022-09-27T04:47:22;10.20;99.90
7694;DHT22;3889;48.162;11.510;2022-09-27T04:49:50;10.20;99.90
7694;DHT22;3889;48.162;11.510;2022-09-27T04:52:18;10.20;99.90
7694;DHT22;3889;48.162;11.510;2022-09-27T04:54:45;10.10;99.90
7694;DHT22;3889;48.162;11.510;2022-09-27T04:57:13;10.10;99.90
7694;DHT22;3889;48.162;11.510;2022-09-27T04:59:43;10.10;99.90
7694;DHT22;3889;48.162;11.510;2022-09-27T05:02:11;10.10;99.90
7694;DHT22;3889;48.162;11.510;2022-09-27T05:04:39;10.10;99.90
7694;DHT22;3889;48.162;11.510;2022-09-27T05:07:07;10.10;99.90
7694;DHT22;3889;48.162;11.510;2022-09-27T05:09:35;10.10;99.90
7694;DHT22;3889;48.162;11.510;2022-09-27T05:12:03;10.10;99.90
7694;DHT22;3889;48.162;11.510;2022-09-27T05:14:33;10.20;99.90
7694;DHT22;3889;48.162;11.510;2022-09-27T05:17:02;10.20;99.90
7694;DHT22;3889;48.162;11.510;2022-09-27T05:19:30;10.20;99.90
7694;DHT22;3889;48.162;11.510;2022-09-27T05:21:58;10.20;99.90
7694;DHT22;3889;48.162;11.510;2022-09-27T05:24:26;10.20;99.90
7694;DHT22;3889;48.162;11.510;2022-09-27T05:26:54;10.20;99.90
7694;DHT22;3889;48.162;11.510;2022-09-27T05:29:23;10.20;99.90
7694;DHT22;3889;48.162;11.510;2022-09-27T05:31:51;10.10;99.90
7694;DHT22;3889;48.162;11.510;2022-09-27T05:34:20;10.10;99.90
7694;DHT22;3889;48.162;11.510;2022-09-27T05:36:48;10.10;99.90
7694;DHT22;3889;48.162;11.510;2022-09-27T05:39:16;10.10;99.90
7694;DHT22;3889;48.162;11.510;2022-09-27T05:41:44;10.10;99.90
7694;DHT22;3889;48.162;11.510;2022-09-27T05:44:13;10.10;99.90
7694;DHT22;3889;48.162;11.510;2022-09-27T05:46:41;10.10;99.90
7694;DHT22;3889;48.162;11.510;2022-09-27T05:49:09;10.00;99.90
7694;DHT22;3889;48.162;11.510;2022-09-27T05:51:38;10.00;99.90
7694;DHT22;3889;48.162;11.510;2022-09-27T05:54:06;9.90;99.90
7694;DHT22;3889;48.162;11.510;2022-09-27T05:56:34;10.00;99.90
7694;DHT22;3889;48.162;11.510;2022-09-27T05:59:02;9.90;99.90
7694;DHT22;3889;48.162;11.510;2022-09-27T06:01:30;10.00;99.90
7694;DHT22;3889;48.162;11.510;2022-09-27T06:03:58;10.00;99.90
7694;DHT22;3889;48.162;11.510;2022-09-27T06:06:26;10.00;99.90
7694;DHT22;3889;48.162;11.510;2022-09-27T06:08:55;9.90;99.90
7694;DHT22;3889;48.162;11.510;2022-09-27T06:11:23;10.00;99.90
7694;DHT22;3889;48.162;11.510;2022-09-27T06:13:53;9.90;99.90
7694;DHT22;3889;48.162;11.510;2022-09-27T06:16:21;9.90;99.90
7694;DHT22;3889;48.162;11.510;2022-09-27T06:18:49;10.00;99.90
7694;DHT22;3889;48.162;11.510;2022-09-27T06:21:17;9.90;99.90
7694;DHT22;3889;48.162;11.510;2022-09-27T06:23:45;9.90;99.90
7694;DHT22;3889;48.162;11.510;2022-09-27T06:26:21;9.80;99.90
7694;DHT22;3889;48.162;11.510;2022-09-27T06:28:49;9.90;99.90
7694;DHT22;3889;48.162;11.510;2022-09-27T06:31:18;9.90;99.90
7694;DHT22;3889;48.162;11.510;2022-09-27T06:36:21;10.00;99.90
7694;DHT22;3889;48.162;11.510;2022-09-27T06:38:49;10.10;99.90
7694;DHT22;3889;48.162;11.510;2022-09-27T06:41:17;10.10;99.90
7694;DHT22;3889;48.162;11.510;2022-09-27T06:43:48;10.20;99.90
7694;DHT22;3889;48.162;11.510;2022-09-27T06:46:16;10.20;99.90
7694;DHT22;3889;48.162;11.510;2022-09-27T06:48:44;10.10;99.90
7694;DHT22;3889;48.162;11.510;2022-09-27T06:51:12;10.20;99.90
7694;DHT22;3889;48.162;11.510;2022-09-27T06:53:41;10.20;99.90
7694;DHT22;3889;48.162;11.510;2022-09-27T06:56:08;10.20;99.90
7694;DHT22;3889;48.162;11.510;2022-09-27T06:58:36;10.30;99.90
7694;DHT22;3889;48.162;11.510;2022-09-27T07:01:27;10.40;99.90
7694;DHT22;3889;48.162;11.510;2022-09-27T07:03:56;10.40;99.90
7694;DHT22;3889;48.162;11.510;2022-09-27T07:06:24;10.50;99.90
7694;DHT22;3889;48.162;11.510;2022-09-27T07:08:52;10.50;99.90
7694;DHT22;3889;48.162;11.510;2022-09-27T07:11:21;10.60;99.90
7694;DHT22;3889;48.162;11.510;2022-09-27T07:13:49;10.60;99.90
7694;DHT22;3889;48.162;11.510;2022-09-27T07:16:17;10.60;99.90
7694;DHT22;3889;48.162;11.510;2022-09-27T07:18:49;10.70;99.90
7694;DHT22;3889;48.162;11.510;2022-09-27T07:21:17;10.80;99.90
7694;DHT22;3889;48.162;11.510;2022-09-27T07:23:45;10.90;99.90
7694;DHT22;3889;48.162;11.510;2022-09-27T07:26:13;10.80;99.90
7694;DHT22;3889;48.162;11.510;2022-09-27T07:28:41;10.80;99.90
7694;DHT22;3889;48.162;11.510;2022-09-27T07:31:11;10.90;99.90
7694;DHT22;3889;48.162;11.510;2022-09-27T07:33:39;10.90;99.90
7694;DHT22;3889;48.162;11.510;2022-09-27T07:36:12;10.90;99.90
7694;DHT22;3889;48.162;11.510;2022-09-27T07:38:40;11.10;99.90
7694;DHT22;3889;48.162;11.510;2022-09-27T07:41:10;11.10;99.90
7694;DHT22;3889;48.162;11.510;2022-09-27T07:43:39;11.10;99.90
7694;DHT22;3889;48.162;11.510;2022-09-27T07:46:07;11.20;99.90
7694;DHT22;3889;48.162;11.510;2022-09-27T07:48:36;11.20;99.90
7694;DHT22;3889;48.162;11.510;2022-09-27T07:51:04;11.30;99.90
7694;DHT22;3889;48.162;11.510;2022-09-27T07:53:35;11.40;99.90
7694;DHT22;3889;48.162;11.510;2022-09-27T07:56:03;11.60;99.90
7694;DHT22;3889;48.162;11.510;2022-09-27T07:58:31;11.80;99.90
7694;DHT22;3889;48.162;11.510;2022-09-27T08:00:59;12.10;99.90
7694;DHT22;3889;48.162;11.510;2022-09-27T08:03:28;12.40;99.90
7694;DHT22;3889;48.162;11.510;2022-09-27T08:06:01;12.30;99.90
7694;DHT22;3889;48.162;11.510;2022-09-27T08:08:29;12.00;99.90
7694;DHT22;3889;48.162;11.510;2022-09-27T08:10:58;11.40;99.90
7694;DHT22;3889;48.162;11.510;2022-09-27T08:13:26;10.70;99.90
7694;DHT22;3889;48.162;11.510;2022-09-27T08:16:00;10.40;99.90
7694;DHT22;3889;48.162;11.510;2022-09-27T08:18:28;10.10;99.90
7694;DHT22;3889;48.162;11.510;2022-09-27T08:20:56;10.00;99.90
7694;DHT22;3889;48.162;11.510;2022-09-27T08:23:24;9.90;99.90
7694;DHT22;3889;48.162;11.510;2022-09-27T08:25:53;10.00;99.90
7694;DHT22;3889;48.162;11.510;2022-09-27T08:28:24;10.00;99.90
7694;DHT22;3889;48.162;11.510;2022-09-27T08:30:52;10.10;99.90
7694;DHT22;3889;48.162;11.510;2022-09-27T08:33:20;10.10;99.90
7694;DHT22;3889;48.162;11.510;2022-09-27T08:35:57;9.90;99.90
7694;DHT22;3889;48.162;11.510;2022-09-27T08:38:25;10.00;99.90
7694;DHT22;3889;48.162;11.510;2022-09-27T08:40:55;9.90;99.90
7694;DHT22;3889;48.162;11.510;2022-09-27T08:43:33;9.90;99.90
7694;DHT22;3889;48.162;11.510;2022-09-27T08:46:22;10.10;99.90
7694;DHT22;3889;48.162;11.510;2022-09-27T08:48:55;10.00;99.90
7694;DHT22;3889;48.162;11.510;2022-09-27T08:51:27;10.30;99.90
7694;DHT22;3889;48.162;11.510;2022-09-27T08:54:01;10.70;99.90
7694;DHT22;3889;48.162;11.510;2022-09-27T08:56:32;10.90;99.90
7694;DHT22;3889;48.162;11.510;2022-09-27T08:59:07;11.10;99.90
7694;DHT22;3889;48.162;11.510;2022-09-27T09:01:39;11.20;99.90
7694;DHT22;3889;48.162;11.510;2022-09-27T09:04:08;11.10;99.90
7694;DHT22;3889;48.162;11.510;2022-09-27T09:06:42;10.90;99.90
7694;DHT22;3889;48.162;11.510;2022-09-27T09:09:23;10.80;99.90
7694;DHT22;3889;48.162;11.510;2022-09-27T09:12:02;10.80;99.90
7694;DHT22;3889;48.162;11.510;2022-09-27T09:15:15;10.70;99.90
7694;DHT22;3889;48.162;11.510;2022-09-27T09:18:13;10.80;99.90
7694;DHT22;3889;48.162;11.510;2022-09-27T09:20:54;10.80;99.90
7694;DHT22;3889;48.162;11.510;2022-09-27T09:26:22;11.30;99.90
7694;DHT22;3889;48.162;11.510;2022-09-27T09:29:03;11.50;99.90
7694;DHT22;3889;48.162;11.510;2022-09-27T09:31:40;11.70;99.90
7694;DHT22;3889;48.162;11.510;2022-09-27T09:34:14;12.00;99.90
7694;DHT22;3889;48.162;11.510;2022-09-27T09:36:46;12.20;99.90
7694;DHT22;3889;48.162;11.510;2022-09-27T09:39:20;12.10;99.90
7694;DHT22;3889;48.162;11.510;2022-09-27T09:42:01;12.20;99.90
7694;DHT22;3889;48.162;11.510;2022-09-27T09:44:38;12.20;99.90
7694;DHT22;3889;48.162;11.510;2022-09-27T09:47:14;11.90;99.90
7694;DHT22;3889;48.162;11.510;2022-09-27T09:49:47;11.90;99.90
7694;DHT22;3889;48.162;11.510;2022-09-27T09:52:18;11.60;99.90
7694;DHT22;3889;48.162;11.510;2022-09-27T09:54:51;11.50;99.90
7694;DHT22;3889;48.162;11.510;2022-09-27T09:57:24;11.40;99.90
7694;DHT22;3889;48.162;11.510;2022-09-27T09:59:58;11.50;99.90
7694;DHT22;3889;48.162;11.510;2022-09-27T10:02:33;11.60;99.90
7694;DHT22;3889;48.162;11.510;2022-09-27T10:05:02;11.70;99.90
7694;DHT22;3889;48.162;11.510;2022-09-27T10:07:35;11.60;99.90
7694;DHT22;3889;48.162;11.510;2022-09-27T10:10:06;11.50;99.90
7694;DHT22;3889;48.162;11.510;2022-09-27T10:12:35;11.40;99.90
7694;DHT22;3889;48.162;11.510;2022-09-27T10:15:05;11.60;99.90
7694;DHT22;3889;48.162;11.510;2022-09-27T10:17:39;11.50;99.90
7694;DHT22;3889;48.162;11.510;2022-09-27T10:20:20;11.60;99.90
7694;DHT22;3889;48.162;11.510;2022-09-27T10:22:53;11.70;99.90
7694;DHT22;3889;48.162;11.510;2022-09-27T10:25:22;11.80;99.90
7694;DHT22;3889;48.162;11.510;2022-09-27T10:27:52;11.80;99.90
7694;DHT22;3889;48.162;11.510;2022-09-27T10:30:27;11.90;99.90
7694;DHT22;3889;48.162;11.510;2022-09-27T10:33:02;11.80;99.90
7694;DHT22;3889;48.162;11.510;2022-09-27T10:35:34;11.80;99.90
7694;DHT22;3889;48.162;11.510;2022-09-27T10:38:22;11.80;99.90
7694;DHT22;3889;48.162;11.510;2022-09-27T10:40:51;11.70;99.90
7694;DHT22;3889;48.162;11.510;2022-09-27T10:43:26;11.40;99.90
7694;DHT22;3889;48.162;11.510;2022-09-27T10:46:15;11.20;99.90
7694;DHT22;3889;48.162;11.510;2022-09-27T10:48:48;11.10;99.90
7694;DHT22;3889;48.162;11.510;2022-09-27T10:51:35;11.00;99.90
7694;DHT22;3889;48.162;11.510;2022-09-27T10:54:03;11.00;99.90
7694;DHT22;3889;48.162;11.510;2022-09-27T10:56:34;11.00;99.90
7694;DHT22;3889;48.162;11.510;2022-09-27T10:59:02;11.00;99.90
7694;DHT22;3889;48.162;11.510;2022-09-27T11:01:40;11.10;99.90
7694;DHT22;3889;48.162;11.510;2022-09-27T11:04:19;11.30;99.90
7694;DHT22;3889;48.162;11.510;2022-09-27T11:06:48;11.70;99.90
7694;DHT22;3889;48.162;11.510;2022-09-27T11:09:19;12.10;99.90
7694;DHT22;3889;48.162;11.510;2022-09-27T11:11:50;12.30;99.90
7694;DHT22;3889;48.162;11.510;2022-09-27T11:14:22;12.40;99.90
7694;DHT22;3889;48.162;11.510;2022-09-27T11:17:03;12.50;99.90
7694;DHT22;3889;48.162;11.510;2022-09-27T11:19:56;12.50;99.90
7694;DHT22;3889;48.162;11.510;2022-09-27T11:25:24;11.90;99.90
7694;DHT22;3889;48.162;11.510;2022-09-27T11:28:03;11.60;99.90
7694;DHT22;3889;48.162;11.510;2022-09-27T11:30:41;11.40;99.90
7694;DHT22;3889;48.162;11.510;2022-09-27T11:33:30;11.20;99.90
7694;DHT22;3889;48.162;11.510;2022-09-27T11:36:06;11.30;99.90
7694;DHT22;3889;48.162;11.510;2022-09-27T11:38:50;11.20;99.90
7694;DHT22;3889;48.162;11.510;2022-09-27T11:41:45;11.20;99.90
7694;DHT22;3889;48.162;11.510;2022-09-27T11:44:38;10.90;99.90
7694;DHT22;3889;48.162;11.510;2022-09-27T11:47:15;10.80;99.90
7694;DHT22;3889;48.162;11.510;2022-09-27T11:52:50;11.00;99.90
7694;DHT22;3889;48.162;11.510;2022-09-27T11:55:30;11.20;99.90
7694;DHT22;3889;48.162;11.510;2022-09-27T11:58:03;11.40;99.90
7694;DHT22;3889;48.162;11.510;2022-09-27T12:00:46;11.40;99.90
7694;DHT22;3889;48.162;11.510;2022-09-27T12:03:50;11.10;99.90
7694;DHT22;3889;48.162;11.510;2022-09-27T12:06:24;11.00;99.90
7694;DHT22;3889;48.162;11.510;2022-09-27T12:09:00;10.90;99.90
7694;DHT22;3889;48.162;11.510;2022-09-27T12:11:36;10.60;99.90
7694;DHT22;3889;48.162;11.510;2022-09-27T12:14:09;10.40;99.90
7694;DHT22;3889;48.162;11.510;2022-09-27T12:16:39;10.10;99.90
7694;DHT22;3889;48.162;11.510;2022-09-27T12:19:15;9.90;99.90
7694;DHT22;3889;48.162;11.510;2022-09-27T12:21:44;9.80;99.90
7694;DHT22;3889;48.162;11.510;2022-09-27T12:24:19;9.70;99.90
7694;DHT22;3889;48.162;11.510;2022-09-27T12:26:50;9.80;99.90
7694;DHT22;3889;48.162;11.510;2022-09-27T12:29:24;10.00;99.90
7694;DHT22;3889;48.162;11.510;2022-09-27T12:31:58;10.20;99.90
7694;DHT22;3889;48.162;11.510;2022-09-27T12:34:34;10.40;99.90
7694;DHT22;3889;48.162;11.510;2022-09-27T12:37:10;10.60;99.90
7694;DHT22;3889;48.162;11.510;2022-09-27T12:39:48;11.00;99.90
7694;DHT22;3889;48.162;11.510;2022-09-27T12:42:20;11.20;99.90
7694;DHT22;3889;48.162;11.510;2022-09-27T12:44:50;11.20;99.90
7694;DHT22;3889;48.162;11.510;2022-09-27T12:47:38;11.20;99.90
7694;DHT22;3889;48.162;11.510;2022-09-27T12:50:16;11.10;99.90
7694;DHT22;3889;48.162;11.510;2022-09-27T12:52:51;11.20;99.90
7694;DHT22;3889;48.162;11.510;2022-09-27T12:55:53;11.20;99.90
7694;DHT22;3889;48.162;11.510;2022-09-27T12:58:50;11.30;99.90
7694;DHT22;3889;48.162;11.510;2022-09-27T13:01:33;11.40;99.90
7694;DHT22;3889;48.162;11.510;2022-09-27T13:04:23;11.40;99.90
7694;DHT22;3889;48.162;11.510;2022-09-27T13:07:22;11.30;99.90
7694;DHT22;3889;48.162;11.510;2022-09-27T13:10:13;11.20;99.90
7694;DHT22;3889;48.162;11.510;2022-09-27T13:12:48;11.10;99.90
7694;DHT22;3889;48.162;11.510;2022-09-27T13:15:24;11.30;99.90
7694;DHT22;3889;48.162;11.510;2022-09-27T13:17:54;11.40;99.90
7694;DHT22;3889;48.162;11.510;2022-09-27T13:20:39;11.30;99.90
7694;DHT22;3889;48.162;11.510;2022-09-27T13:26:45;11.40;99.90
7694;DHT22;3889;48.162;11.510;2022-09-27T13:29:27;11.20;99.90
7694;DHT22;3889;48.162;11.510;2022-09-27T13:32:17;11.20;99.90
7694;DHT22;3889;48.162;11.510;2022-09-27T13:34:47;11.10;99.90
7694;DHT22;3889;48.162;11.510;2022-09-27T13:37:35;11.30;99.90
7694;DHT22;3889;48.162;11.510;2022-09-27T13:40:26;11.30;99.90
7694;DHT22;3889;48.162;11.510;2022-09-27T13:43:10;11.40;99.90
7694;DHT22;3889;48.162;11.510;2022-09-27T13:45:50;11.60;99.90
7694;DHT22;3889;48.162;11.510;2022-09-27T13:48:25;11.60;99.90
7694;DHT22;3889;48.162;11.510;2022-09-27T13:50:59;11.50;99.90
7694;DHT22;3889;48.162;11.510;2022-09-27T13:53:30;11.50;99.90
7694;DHT22;3889;48.162;11.510;2022-09-27T13:56:00;11.30;99.90
7694;DHT22;3889;48.162;11.510;2022-09-27T13:58:38;11.20;99.90
7694;DHT22;3889;48.162;11.510;2022-09-27T14:01:20;11.10;99.90
7694;DHT22;3889;48.162;11.510;2022-09-27T14:03:53;11.00;99.90
7694;DHT22;3889;48.162;11.510;2022-09-27T14:06:25;11.10;99.90
7694;DHT22;3889;48.162;11.510;2022-09-27T14:08:56;11.10;99.90
7694;DHT22;3889;48.162;11.510;2022-09-27T14:11:27;11.20;99.90
7694;DHT22;3889;48.162;11.510;2022-09-27T14:13:56;11.30;99.90
7694;DHT22;3889;48.162;11.510;2022-09-27T14:16:28;11.30;99.90
7694;DHT22;3889;48.162;11.510;2022-09-27T14:18:57;11.10;99.90
7694;DHT22;3889;48.162;11.510;2022-09-27T14:21:29;11.20;99.90
7694;DHT22;3889;48.162;11.510;2022-09-27T14:24:23;11.30;99.90
7694;DHT22;3889;48.162;11.510;2022-09-27T14:27:05;11.60;99.90
7694;DHT22;3889;48.162;11.510;2022-09-27T14:29:39;11.80;99.90
7694;DHT22;3889;48.162;11.510;2022-09-27T14:32:11;11.80;99.90
7694;DHT22;3889;48.162;11.510;2022-09-27T14:34:40;11.90;99.90
7694;DHT22;3889;48.162;11.510;2022-09-27T14:37:28;11.80;99.90
7694;DHT22;3889;48.162;11.510;2022-09-27T14:39:58;11.40;99.90
7694;DHT22;3889;48.162;11.510;2022-09-27T14:42:29;11.30;99.90
7694;DHT22;3889;48.162;11.510;2022-09-27T14:45:19;11.30;99.90
7694;DHT22;3889;48.162;11.510;2022-09-27T14:47:50;11.10;99.90
7694;DHT22;3889;48.162;11.510;2022-09-27T14:50:21;11.10;99.90
7694;DHT22;3889;48.162;11.510;2022-09-27T14:52:50;11.10;99.90
7694;DHT22;3889;48.162;11.510;2022-09-27T14:55:22;11.20;99.90
7694;DHT22;3889;48.162;11.510;2022-09-27T14:57:52;11.10;99.90
7694;DHT22;3889;48.162;11.510;2022-09-27T15:00:22;11.20;99.90
7694;DHT22;3889;48.162;11.510;2022-09-27T15:02:54;11.10;99.90
7694;DHT22;3889;48.162;11.510;2022-09-27T15:05:26;11.20;99.90
7694;DHT22;3889;48.162;11.510;2022-09-27T15:07:55;11.20;99.90
7694;DHT22;3889;48.162;11.510;2022-09-27T15:10:25;11.20;99.90
7694;DHT22;3889;48.162;11.510;2022-09-27T15:12:57;11.30;99.90
7694;DHT22;3889;48.162;11.510;2022-09-27T15:15:29;11.30;99.90
7694;DHT22;3889;48.162;11.510;2022-09-27T15:17:59;11.30;99.90
7694;DHT22;3889;48.162;11.510;2022-09-27T15:20:29;11.20;99.90
7694;DHT22;3889;48.162;11.510;2022-09-27T15:23:01;11.10;99.90
7694;DHT22;3889;48.162;11.510;2022-09-27T15:25:32;11.10;99.90
7694;DHT22;3889;48.162;11.510;2022-09-27T15:28:03;11.00;99.90
7694;DHT22;3889;48.162;11.510;2022-09-27T15:30:36;11.00;99.90
7694;DHT22;3889;48.162;11.510;2022-09-27T15:33:16;11.00;99.90
7694;DHT22;3889;48.162;11.510;2022-09-27T15:35:49;11.10;99.90
7694;DHT22;3889;48.162;11.510;2022-09-27T15:38:27;10.90;99.90
7694;DHT22;3889;48.162;11.510;2022-09-27T15:41:03;11.20;99.90
7694;DHT22;3889;48.162;11.510;2022-09-27T15:43:34;11.20;99.90
7694;DHT22;3889;48.162;11.510;2022-09-27T15:46:04;11.10;99.90
7694;DHT22;3889;48.162;11.510;2022-09-27T15:48:34;11.20;99.90
7694;DHT22;3889;48.162;11.510;2022-09-27T15:51:36;11.20;99.90
7694;DHT22;3889;48.162;11.510;2022-09-27T15:54:06;11.20;99.90
7694;DHT22;3889;48.162;11.510;2022-09-27T15:56:33;11.10;99.90
7694;DHT22;3889;48.162;11.510;2022-09-27T15:59:02;10.90;99.90
7694;DHT22;3889;48.162;11.510;2022-09-27T16:01:30;10.70;99.90
7694;DHT22;3889;48.162;11.510;2022-09-27T16:03:58;10.70;99.90
7694;DHT22;3889;48.162;11.510;2022-09-27T16:06:27;10.60;99.90
7694;DHT22;3889;48.162;11.510;2022-09-27T16:08:55;10.10;99.90
7694;DHT22;3889;48.162;11.510;2022-09-27T16:11:24;9.70;99.90
7694;DHT22;3889;48.162;11.510;2022-09-27T16:13:52;9.50;99.90
7694;DHT22;3889;48.162;11.510;2022-09-27T16:16:21;9.40;99.90
7694;DHT22;3889;48.162;11.510;2022-09-27T16:18:49;9.40;99.90
7694;DHT22;3889;48.162;11.510;2022-09-27T16:21:17;9.30;99.90
7694;DHT22;3889;48.162;11.510;2022-09-27T16:23:44;9.30;99.90
7694;DHT22;3889;48.162;11.510;2022-09-27T16:26:12;9.20;99.90
7694;DHT22;3889;48.162;11.510;2022-09-27T16:28:41;9.20;99.90
7694;DHT22;3889;48.162;11.510;2022-09-27T16:31:09;9.10;99.90
7694;DHT22;3889;48.162;11.510;2022-09-27T16:33:38;9.10;99.90
7694;DHT22;3889;48.162;11.510;2022-09-27T16:36:07;9.10;99.90
7694;DHT22;3889;48.162;11.510;2022-09-27T16:38:40;9.10;99.90
7694;DHT22;3889;48.162;11.510;2022-09-27T16:41:08;9.10;99.90
7694;DHT22;3889;48.162;11.510;2022-09-27T16:43:35;9.10;99.90
7694;DHT22;3889;48.162;11.510;2022-09-27T16:46:06;9.10;99.90